Terminal Aerodrome Forecast
Issued by NWS Amarillo, TX

Home | Current Version | Previous Version | Text Only | Print | Product List | Glossary On
Versions: 1 2 3 4 5 6 7 8 9 10 11 12 13 14 15 16 17 18 19 20 21 22
445
FTUS44 KAMA 241721
TAFAMA
TAF
KAMA 241721Z 2418/2518 24011KT P6SM SCT100
     FM242100 20014G24KT P6SM VCSH BKN100
     FM250000 17010KT P6SM VCSH OVC100 PROB30 2503/2509 5SM TSRA
      BKN020CB
     FM251000 19007KT P6SM SCT030 OVC100=

USA.gov is the U.S. government's official web portal to all federal, state and local government web resources and services.